createdAt,value
2022-11-07T00:00:07.751Z,7.07
2022-11-07T00:02:34.330Z,7.08
2022-11-07T00:05:01.537Z,7.15
2022-11-07T00:07:28.060Z,7.19
2022-11-07T00:09:54.580Z,7.21
2022-11-07T00:12:22.498Z,7.22
2022-11-07T00:14:49.057Z,7.20
2022-11-07T00:17:15.691Z,7.23
2022-11-07T00:19:42.226Z,7.22
2022-11-07T00:22:08.941Z,7.20
2022-11-07T00:24:35.457Z,7.23
2022-11-07T00:27:02.008Z,7.22
2022-11-07T00:29:29.942Z,7.22
2022-11-07T00:31:56.461Z,7.22
2022-11-07T00:34:23.098Z,7.21
2022-11-07T00:36:49.593Z,7.19
2022-11-07T00:39:16.565Z,7.21
2022-11-07T00:41:43.235Z,7.22
2022-11-07T00:44:09.762Z,7.24
2022-11-07T00:46:37.772Z,7.24
2022-11-07T00:49:04.423Z,7.27
2022-11-07T00:51:30.958Z,7.25
2022-11-07T00:53:57.558Z,7.24
2022-11-07T00:56:25.215Z,7.26
2022-11-07T00:58:55.474Z,7.31
2022-11-07T01:01:23.949Z,7.31
2022-11-07T01:03:52.417Z,7.30
2022-11-07T01:06:19.140Z,7.35
2022-11-07T01:08:45.648Z,7.35
2022-11-07T01:11:12.169Z,7.38
2022-11-07T01:13:38.847Z,7.34
2022-11-07T01:16:08.351Z,7.34
2022-11-07T01:18:35.028Z,7.33
2022-11-07T01:21:05.746Z,7.34
2022-11-07T01:23:32.303Z,7.38
2022-11-07T01:26:03.203Z,7.35
2022-11-07T01:28:29.899Z,7.38
2022-11-07T01:30:56.415Z,7.34
2022-11-07T01:33:22.995Z,7.39
2022-11-07T01:35:49.506Z,7.41
2022-11-07T01:38:17.363Z,7.38
2022-11-07T01:40:44.216Z,7.37
2022-11-07T01:43:10.942Z,7.38
2022-11-07T01:45:37.520Z,7.40
2022-11-07T01:48:04.293Z,7.42
2022-11-07T01:50:30.849Z,7.44
2022-11-07T01:52:57.974Z,7.44
2022-11-07T01:55:29.601Z,7.44
2022-11-07T01:57:59.585Z,7.42
2022-11-07T02:00:27.337Z,7.46
2022-11-07T02:02:57.747Z,7.46
2022-11-07T02:05:30.673Z,7.46
2022-11-07T02:07:58.659Z,7.43
2022-11-07T02:10:27.237Z,7.45
2022-11-07T02:12:55.692Z,7.49
2022-11-07T02:15:22.388Z,7.50
2022-11-07T02:17:49.285Z,7.48
2022-11-07T02:20:15.959Z,7.47
2022-11-07T02:22:51.970Z,7.44
2022-11-07T02:25:20.490Z,7.48
2022-11-07T02:27:49.982Z,7.54
2022-11-07T02:30:18.907Z,7.55
2022-11-07T02:32:45.429Z,7.56
2022-11-07T02:35:35.874Z,7.57
2022-11-07T02:38:04.854Z,7.60
2022-11-07T02:40:33.795Z,7.60
2022-11-07T02:43:00.590Z,7.60
2022-11-07T02:45:30.682Z,7.62
2022-11-07T02:47:57.241Z,7.61
2022-11-07T02:50:24.307Z,7.61
2022-11-07T02:52:50.883Z,7.55
2022-11-07T02:55:17.725Z,7.51
2022-11-07T02:57:45.611Z,7.43
2022-11-07T03:00:14.028Z,7.37
2022-11-07T03:02:41.159Z,7.34
2022-11-07T03:05:08.470Z,7.31
2022-11-07T03:07:35.140Z,7.35
2022-11-07T03:10:01.689Z,7.36
2022-11-07T03:12:28.205Z,7.38
2022-11-07T03:14:56.188Z,7.39
2022-11-07T03:17:22.724Z,7.39
2022-11-07T03:19:49.234Z,7.40
2022-11-07T03:22:15.779Z,7.38
2022-11-07T03:24:42.313Z,7.38
2022-11-07T03:27:08.851Z,7.31
2022-11-07T03:29:35.417Z,7.26
2022-11-07T03:32:03.505Z,7.21
2022-11-07T03:34:30.153Z,7.18
2022-11-07T03:36:56.811Z,7.26
2022-11-07T03:39:25.999Z,7.30
2022-11-07T03:41:52.720Z,7.37
2022-11-07T03:44:19.360Z,7.38
2022-11-07T03:46:46.041Z,7.37
2022-11-07T03:49:13.926Z,7.37
2022-11-07T03:51:40.551Z,7.39
2022-11-07T03:54:07.108Z,7.40
2022-11-07T03:56:33.682Z,7.40
2022-11-07T03:59:00.192Z,7.43
2022-11-07T04:01:26.963Z,7.44
2022-11-07T04:03:56.187Z,7.43
2022-11-07T04:06:24.379Z,7.42
2022-11-07T04:08:50.908Z,7.43
2022-11-07T04:11:17.414Z,7.41
2022-11-07T04:13:44.066Z,7.42
2022-11-07T04:16:17.279Z,7.40
2022-11-07T04:18:44.167Z,7.38
2022-11-07T04:21:10.805Z,7.36
2022-11-07T04:23:38.812Z,7.33
2022-11-07T04:26:05.694Z,7.32
2022-11-07T04:28:32.366Z,7.31
2022-11-07T04:30:58.858Z,7.29
2022-11-07T04:33:25.512Z,7.33
2022-11-07T04:35:52.006Z,7.31
2022-11-07T04:38:18.660Z,7.41
2022-11-07T04:40:52.820Z,7.40
2022-11-07T04:43:19.473Z,7.38
2022-11-07T04:45:45.995Z,7.38
2022-11-07T04:48:12.663Z,7.42
2022-11-07T04:50:39.768Z,7.51
2022-11-07T04:53:06.305Z,7.48
2022-11-07T04:55:32.827Z,7.49
2022-11-07T04:58:00.682Z,7.47
2022-11-07T05:00:27.360Z,7.61
2022-11-07T05:02:53.970Z,7.66
2022-11-07T05:05:20.947Z,7.66
2022-11-07T05:07:48.251Z,7.73
2022-11-07T05:10:18.701Z,7.69
2022-11-07T05:12:45.243Z,7.69
2022-11-07T05:15:13.492Z,7.77
2022-11-07T05:17:40.277Z,7.69
2022-11-07T05:20:11.880Z,7.63
2022-11-07T05:22:38.408Z,7.69
2022-11-07T05:25:05.675Z,7.68
2022-11-07T05:27:32.188Z,7.83
2022-11-07T05:29:58.705Z,7.79
2022-11-07T05:32:26.575Z,7.72
2022-11-07T05:34:53.105Z,7.76
2022-11-07T05:37:19.659Z,7.74
2022-11-07T05:39:48.054Z,7.64
2022-11-07T05:42:17.545Z,7.65
2022-11-07T05:44:44.053Z,7.67
2022-11-07T05:47:10.699Z,7.74
2022-11-07T05:49:38.560Z,7.73
2022-11-07T05:52:05.792Z,7.83
2022-11-07T05:54:32.349Z,7.84
2022-11-07T05:56:59.252Z,7.84
2022-11-07T05:59:25.871Z,7.94
2022-11-07T06:01:53.033Z,8.05
2022-11-07T06:04:19.827Z,8.09
2022-11-07T06:06:47.681Z,8.08
2022-11-07T06:09:14.355Z,8.10
2022-11-07T06:11:41.084Z,8.05
2022-11-07T06:14:07.602Z,8.05
2022-11-07T06:16:34.147Z,8.08
2022-11-07T06:19:00.666Z,8.01
2022-11-07T06:21:27.185Z,8.07
2022-11-07T06:23:55.095Z,8.02
2022-11-07T06:26:21.615Z,8.01
2022-11-07T06:28:48.166Z,7.97
2022-11-07T06:31:14.818Z,7.94
2022-11-07T06:33:41.545Z,7.92
2022-11-07T06:36:10.476Z,7.96
2022-11-07T06:38:37.798Z,8.00
2022-11-07T06:41:07.806Z,8.04
2022-11-07T06:43:34.956Z,8.04
2022-11-07T06:46:03.910Z,8.09
2022-11-07T06:48:30.737Z,8.19
2022-11-07T06:50:58.291Z,8.25
2022-11-07T06:53:25.234Z,8.24
2022-11-07T06:55:51.787Z,8.23
2022-11-07T06:58:20.134Z,8.34
2022-11-07T07:00:46.706Z,8.37
2022-11-07T07:03:13.724Z,8.46
2022-11-07T07:05:40.581Z,8.50
2022-11-07T07:08:08.228Z,8.48
2022-11-07T07:10:40.701Z,8.48
2022-11-07T07:13:07.214Z,8.50
2022-11-07T07:15:49.799Z,8.52
2022-11-07T07:18:17.225Z,8.63
2022-11-07T07:20:43.797Z,8.64
2022-11-07T07:23:10.346Z,8.68
2022-11-07T07:25:36.885Z,8.72
2022-11-07T07:28:03.467Z,8.78
2022-11-07T07:30:30.059Z,8.84
2022-11-07T07:32:58.023Z,8.92
2022-11-07T07:35:24.526Z,8.94
2022-11-07T07:37:51.830Z,8.98
2022-11-07T07:40:19.110Z,9.04
2022-11-07T07:42:45.739Z,9.12
2022-11-07T07:45:14.060Z,9.21
2022-11-07T07:47:41.019Z,9.28
2022-11-07T07:50:11.315Z,9.34
2022-11-07T07:52:38.173Z,9.40
2022-11-07T07:55:05.472Z,9.51
2022-11-07T07:57:32.160Z,9.58
2022-11-07T07:59:58.803Z,9.57
2022-11-07T08:02:25.399Z,9.58
2022-11-07T08:04:52.009Z,9.59
2022-11-07T08:07:19.890Z,9.60
2022-11-07T08:09:46.607Z,9.61
2022-11-07T08:12:13.131Z,9.64
2022-11-07T08:14:39.647Z,9.65
2022-11-07T08:17:06.167Z,9.68
2022-11-07T08:19:32.716Z,9.73
2022-11-07T08:21:59.369Z,9.81
2022-11-07T08:24:27.367Z,9.97
2022-11-07T08:26:53.897Z,10.06
2022-11-07T08:29:20.732Z,10.16
2022-11-07T08:31:47.510Z,10.30
2022-11-07T08:34:14.603Z,10.40
2022-11-07T08:36:41.121Z,10.50
2022-11-07T08:39:07.645Z,10.45
2022-11-07T08:41:35.533Z,10.51
2022-11-07T08:44:02.083Z,10.56
2022-11-07T08:46:28.605Z,10.68
2022-11-07T08:48:55.143Z,10.80
2022-11-07T08:51:21.775Z,10.99
2022-11-07T08:53:48.379Z,11.13
2022-11-07T08:56:14.907Z,11.34
2022-11-07T08:58:42.890Z,11.50
2022-11-07T09:01:10.268Z,11.42
2022-11-07T09:03:49.216Z,11.30
2022-11-07T09:06:19.944Z,11.21
2022-11-07T09:08:46.548Z,11.17
2022-11-07T09:11:13.509Z,11.24
2022-11-07T09:13:40.056Z,11.33
2022-11-07T09:16:08.360Z,11.21
2022-11-07T09:18:34.911Z,11.29
2022-11-07T09:21:01.696Z,11.44
2022-11-07T09:23:28.398Z,11.46
2022-11-07T09:25:55.227Z,11.47
2022-11-07T09:28:21.834Z,11.38
2022-11-07T09:30:53.029Z,11.47
2022-11-07T09:33:21.553Z,11.30
2022-11-07T09:35:48.353Z,11.31
2022-11-07T09:38:15.287Z,11.17
2022-11-07T09:40:51.034Z,11.10
2022-11-07T09:43:44.482Z,11.09
2022-11-07T09:46:22.556Z,11.06
2022-11-07T09:48:56.639Z,10.95
2022-11-07T09:51:29.104Z,10.92
2022-11-07T09:53:59.923Z,10.89
2022-11-07T09:56:29.255Z,10.92
2022-11-07T09:59:00.419Z,11.01
2022-11-07T10:01:30.997Z,11.09
2022-11-07T10:04:23.733Z,11.09
2022-11-07T10:06:51.064Z,11.07
2022-11-07T10:09:25.638Z,11.04
2022-11-07T10:12:04.149Z,11.07
2022-11-07T10:14:41.814Z,11.24
2022-11-07T10:17:17.725Z,11.59
2022-11-07T10:20:03.918Z,12.06
2022-11-07T10:22:44.774Z,12.46
2022-11-07T10:25:19.963Z,12.80
2022-11-07T10:27:52.092Z,12.85
2022-11-07T10:30:20.936Z,12.95
2022-11-07T10:32:56.437Z,12.65
2022-11-07T10:35:28.885Z,12.32
2022-11-07T10:38:01.545Z,12.34
2022-11-07T10:40:35.769Z,12.42
2022-11-07T10:43:05.524Z,12.59
2022-11-07T10:45:32.427Z,12.49
2022-11-07T10:48:00.560Z,12.31
2022-11-07T10:50:28.786Z,12.26
2022-11-07T10:52:57.139Z,12.56
2022-11-07T10:55:24.731Z,12.54
2022-11-07T10:57:53.971Z,12.38
2022-11-07T11:00:24.137Z,12.43
2022-11-07T11:02:51.703Z,12.42
2022-11-07T11:05:32.919Z,12.31
2022-11-07T11:08:10.344Z,12.36
2022-11-07T11:10:38.699Z,12.21
2022-11-07T11:13:05.422Z,11.95
2022-11-07T11:15:35.762Z,12.03
2022-11-07T11:18:05.016Z,11.98
2022-11-07T11:20:37.128Z,11.83
2022-11-07T11:23:06.920Z,11.84
2022-11-07T11:25:44.117Z,11.79
2022-11-07T11:28:18.275Z,11.83
2022-11-07T11:30:50.349Z,11.73
2022-11-07T11:33:22.606Z,11.70
2022-11-07T11:35:55.573Z,11.73
2022-11-07T11:38:27.238Z,11.76
2022-11-07T11:41:04.720Z,11.83
2022-11-07T11:43:43.018Z,11.98
2022-11-07T11:46:16.248Z,12.22
2022-11-07T11:48:47.716Z,12.57
2022-11-07T11:51:21.279Z,12.92
2022-11-07T11:53:47.994Z,12.98
2022-11-07T11:56:25.360Z,12.93
2022-11-07T11:59:04.101Z,12.73
2022-11-07T12:01:42.396Z,12.29
2022-11-07T12:04:49.400Z,12.05
2022-11-07T12:07:37.048Z,12.01
2022-11-07T12:10:08.219Z,11.87
2022-11-07T12:12:47.658Z,11.80
2022-11-07T12:15:30.769Z,11.83
2022-11-07T12:18:01.513Z,11.86
2022-11-07T12:20:32.647Z,11.85
2022-11-07T12:23:13.267Z,11.83
2022-11-07T12:25:45.860Z,11.84
2022-11-07T12:28:30.689Z,11.90
2022-11-07T12:31:06.835Z,12.00
2022-11-07T12:33:42.238Z,12.16
2022-11-07T12:36:14.845Z,12.26
2022-11-07T12:38:57.808Z,12.23
2022-11-07T12:41:35.509Z,12.18
2022-11-07T12:44:16.897Z,12.11
2022-11-07T12:46:48.395Z,12.11
2022-11-07T12:49:37.273Z,12.08
2022-11-07T12:52:13.385Z,12.07
2022-11-07T12:54:49.809Z,11.93
2022-11-07T12:57:20.511Z,11.88
2022-11-07T12:59:53.475Z,11.88
2022-11-07T13:02:40.007Z,11.75
2022-11-07T13:05:17.240Z,11.70
2022-11-07T13:07:50.693Z,11.70
2022-11-07T13:10:27.223Z,11.68
2022-11-07T13:13:00.887Z,11.68
2022-11-07T13:15:27.721Z,11.69
2022-11-07T13:17:54.328Z,11.68
2022-11-07T13:20:29.554Z,11.58
2022-11-07T13:22:57.911Z,11.54
2022-11-07T13:25:30.976Z,11.49
2022-11-07T13:28:06.748Z,11.48
2022-11-07T13:30:36.166Z,11.44
2022-11-07T13:33:04.163Z,11.44
2022-11-07T13:35:32.122Z,11.43
2022-11-07T13:38:05.899Z,11.42
2022-11-07T13:40:39.081Z,11.42
2022-11-07T13:43:14.109Z,11.40
2022-11-07T13:45:45.867Z,11.39
2022-11-07T13:48:17.708Z,11.40
2022-11-07T13:50:49.265Z,11.45
2022-11-07T13:53:21.852Z,11.47
2022-11-07T13:55:55.714Z,11.61
2022-11-07T13:58:22.904Z,11.66
2022-11-07T14:00:49.578Z,11.68
2022-11-07T14:03:24.430Z,11.71
2022-11-07T14:05:51.790Z,11.68
2022-11-07T14:08:25.379Z,11.63
2022-11-07T14:10:54.103Z,11.66
2022-11-07T14:13:25.130Z,11.61
2022-11-07T14:15:56.308Z,11.60
2022-11-07T14:18:26.660Z,11.53
2022-11-07T14:20:55.354Z,11.47
2022-11-07T14:23:23.794Z,11.46
2022-11-07T14:26:00.197Z,11.42
2022-11-07T14:28:33.602Z,11.37
2022-11-07T14:31:00.938Z,11.38
2022-11-07T14:33:27.817Z,11.39
2022-11-07T14:35:54.367Z,11.34
2022-11-07T14:38:22.919Z,11.32
2022-11-07T14:40:50.080Z,11.30
2022-11-07T14:43:20.534Z,11.25
2022-11-07T14:46:11.452Z,11.22
2022-11-07T14:48:36.311Z,11.23
2022-11-07T14:51:03.646Z,11.19
2022-11-07T14:53:33.726Z,11.17
2022-11-07T14:56:06.575Z,11.13
2022-11-07T14:58:35.122Z,11.13
2022-11-07T15:01:12.244Z,11.13
2022-11-07T15:03:51.600Z,11.12
2022-11-07T15:06:23.295Z,11.11
2022-11-07T15:08:57.082Z,11.09
2022-11-07T15:11:27.539Z,11.11
2022-11-07T15:13:56.755Z,11.09
2022-11-07T15:16:23.741Z,11.07
2022-11-07T15:18:58.074Z,11.09
2022-11-07T15:21:29.358Z,11.06
2022-11-07T15:23:56.165Z,11.05
2022-11-07T15:26:24.793Z,11.04
2022-11-07T15:28:52.510Z,11.01
2022-11-07T15:31:22.972Z,10.98
2022-11-07T15:33:50.222Z,10.94
2022-11-07T15:36:17.042Z,10.91
2022-11-07T15:38:43.664Z,10.87
2022-11-07T15:41:10.411Z,10.81
2022-11-07T15:43:36.948Z,10.81
2022-11-07T15:46:24.275Z,10.83
2022-11-07T15:48:50.831Z,10.78
2022-11-07T15:51:17.391Z,10.77
2022-11-07T15:53:44.050Z,10.79
2022-11-07T15:56:15.235Z,10.80
2022-11-07T15:58:42.138Z,10.76
2022-11-07T16:01:09.047Z,10.78
2022-11-07T16:03:37.195Z,10.80
2022-11-07T16:06:15.189Z,10.77
2022-11-07T16:08:41.957Z,10.72
2022-11-07T16:11:10.165Z,10.68
2022-11-07T16:13:36.654Z,10.67
2022-11-07T16:16:04.379Z,10.66
2022-11-07T16:18:37.701Z,10.59
2022-11-07T16:21:06.197Z,10.54
2022-11-07T16:23:32.810Z,10.51
2022-11-07T16:25:59.532Z,10.56
2022-11-07T16:28:29.991Z,10.49
2022-11-07T16:30:57.372Z,10.51
2022-11-07T16:33:24.805Z,10.51
2022-11-07T16:35:55.234Z,10.52
2022-11-07T16:38:24.486Z,10.54
2022-11-07T16:40:51.350Z,10.54
2022-11-07T16:43:18.234Z,10.52
2022-11-07T16:45:46.972Z,10.47
2022-11-07T16:48:19.232Z,10.46
2022-11-07T16:50:45.822Z,10.41
2022-11-07T16:53:12.739Z,10.42
2022-11-07T16:55:43.713Z,10.45
2022-11-07T16:58:21.919Z,10.48
2022-11-07T17:00:48.448Z,10.48
2022-11-07T17:03:15.239Z,10.48
2022-11-07T17:05:42.143Z,10.45
2022-11-07T17:08:16.096Z,10.46
2022-11-07T17:10:44.350Z,10.44
2022-11-07T17:13:10.875Z,10.44
2022-11-07T17:15:37.531Z,10.45
2022-11-07T17:18:08.156Z,10.38
2022-11-07T17:20:50.492Z,10.41
2022-11-07T17:23:17.777Z,10.36
2022-11-07T17:25:49.366Z,10.41
2022-11-07T17:28:16.282Z,10.41
2022-11-07T17:30:43.079Z,10.39
2022-11-07T17:33:09.907Z,10.39
2022-11-07T17:35:37.320Z,10.40
2022-11-07T17:38:03.901Z,10.37
2022-11-07T17:40:32.696Z,10.34
2022-11-07T17:43:00.914Z,10.39
2022-11-07T17:45:27.798Z,10.44
2022-11-07T17:47:54.293Z,10.40
2022-11-07T17:50:21.806Z,10.41
2022-11-07T17:52:48.678Z,10.41
2022-11-07T17:55:15.475Z,10.45
2022-11-07T17:57:42.025Z,10.43
2022-11-07T18:00:17.555Z,10.46
2022-11-07T18:02:44.547Z,10.43
2022-11-07T18:05:13.904Z,10.44
2022-11-07T18:07:40.472Z,10.41
2022-11-07T18:10:07.945Z,10.43
2022-11-07T18:12:34.539Z,10.45
2022-11-07T18:15:01.096Z,10.41
2022-11-07T18:17:28.944Z,10.41
2022-11-07T18:19:55.485Z,10.47
2022-11-07T18:22:22.025Z,10.40
2022-11-07T18:24:48.555Z,10.36
2022-11-07T18:27:15.099Z,10.38
2022-11-07T18:29:41.804Z,10.38
2022-11-07T18:32:08.400Z,10.37
2022-11-07T18:34:36.450Z,10.34
2022-11-07T18:37:03.154Z,10.35
2022-11-07T18:39:29.708Z,10.30
2022-11-07T18:41:56.230Z,10.26
2022-11-07T18:44:22.763Z,10.31
2022-11-07T18:46:49.445Z,10.30
2022-11-07T18:49:15.987Z,10.33
2022-11-07T18:51:43.996Z,10.30
2022-11-07T18:54:11.541Z,10.27
2022-11-07T18:56:39.272Z,10.25
2022-11-07T18:59:05.806Z,10.30
2022-11-07T19:01:32.894Z,10.26
2022-11-07T19:04:01.315Z,10.24
2022-11-07T19:06:30.018Z,10.29
2022-11-07T19:08:58.746Z,10.34
2022-11-07T19:11:27.973Z,10.33
2022-11-07T19:13:55.459Z,10.29
2022-11-07T19:16:23.030Z,10.28
2022-11-07T19:18:50.675Z,10.24
2022-11-07T19:21:19.565Z,10.27
2022-11-07T19:23:47.227Z,10.16
2022-11-07T19:26:16.166Z,10.15
2022-11-07T19:28:42.682Z,10.05
2022-11-07T19:31:11.533Z,10.08
2022-11-07T19:33:38.376Z,10.07
2022-11-07T19:36:07.082Z,10.03
2022-11-07T19:38:33.906Z,9.99
2022-11-07T19:41:02.621Z,9.97
2022-11-07T19:43:30.573Z,9.96
2022-11-07T19:45:57.370Z,9.98
2022-11-07T19:48:23.968Z,9.99
2022-11-07T19:50:50.674Z,10.14
2022-11-07T19:53:17.433Z,10.07
2022-11-07T19:55:44.254Z,10.08
2022-11-07T19:58:10.921Z,10.13
2022-11-07T20:00:38.881Z,10.14
2022-11-07T20:03:05.530Z,10.17
2022-11-07T20:05:32.176Z,10.11
2022-11-07T20:08:03.739Z,10.05
2022-11-07T20:10:31.662Z,9.98
2022-11-07T20:12:58.206Z,10.06
2022-11-07T20:15:24.792Z,10.07
2022-11-07T20:17:52.654Z,10.07
2022-11-07T20:20:19.327Z,9.96
2022-11-07T20:22:46.658Z,9.94
2022-11-07T20:25:13.795Z,9.92
2022-11-07T20:27:40.808Z,9.82
2022-11-07T20:30:08.737Z,9.81
2022-11-07T20:32:35.272Z,9.77
2022-11-07T20:35:03.501Z,9.77
2022-11-07T20:37:30.027Z,9.81
2022-11-07T20:39:56.541Z,9.90
2022-11-07T20:42:23.158Z,10.00
2022-11-07T20:44:49.936Z,9.95
2022-11-07T20:47:16.528Z,10.00
2022-11-07T20:49:43.278Z,10.04
2022-11-07T20:52:11.168Z,10.03
2022-11-07T20:54:38.070Z,10.00
2022-11-07T20:57:04.921Z,9.98
2022-11-07T20:59:31.870Z,10.07
2022-11-07T21:02:03.242Z,10.09
2022-11-07T21:04:36.194Z,10.08
2022-11-07T21:07:12.244Z,10.13
2022-11-07T21:09:38.798Z,10.21
2022-11-07T21:12:05.580Z,10.18
2022-11-07T21:14:32.106Z,10.16
2022-11-07T21:16:58.784Z,10.16
2022-11-07T21:19:25.354Z,10.25
2022-11-07T21:21:51.884Z,10.32
2022-11-07T21:24:19.959Z,10.40
2022-11-07T21:26:46.815Z,10.37
2022-11-07T21:29:13.363Z,10.42
2022-11-07T21:31:40.399Z,10.38
2022-11-07T21:34:08.685Z,10.34
2022-11-07T21:36:35.343Z,10.32
2022-11-07T21:39:02.134Z,10.36
2022-11-07T21:41:31.719Z,10.27
2022-11-07T21:43:58.312Z,10.25
2022-11-07T21:46:26.507Z,10.24
2022-11-07T21:48:55.142Z,10.24
2022-11-07T21:51:23.041Z,10.20
2022-11-07T21:53:50.443Z,10.11
2022-11-07T21:56:20.079Z,10.05
2022-11-07T21:58:48.045Z,9.98
2022-11-07T22:01:14.651Z,9.94
2022-11-07T22:04:05.144Z,9.93
2022-11-07T22:06:28.412Z,9.88
2022-11-07T22:08:55.033Z,10.00
2022-11-07T22:11:21.540Z,10.07
2022-11-07T22:13:49.417Z,10.12
2022-11-07T22:16:18.380Z,10.09
2022-11-07T22:18:45.940Z,10.10
2022-11-07T22:21:14.550Z,10.18
2022-11-07T22:23:41.364Z,10.18
2022-11-07T22:26:11.667Z,10.17
2022-11-07T22:28:42.878Z,10.18
2022-11-07T22:31:15.471Z,10.17
2022-11-07T22:33:42.024Z,10.15
2022-11-07T22:36:10.542Z,10.15
2022-11-07T22:38:37.970Z,10.12
2022-11-07T22:41:06.198Z,10.10
2022-11-07T22:43:33.062Z,10.07
2022-11-07T22:46:01.714Z,10.02
2022-11-07T22:48:30.144Z,9.92
2022-11-07T22:51:01.849Z,9.99
2022-11-07T22:53:28.828Z,9.99
2022-11-07T22:55:55.509Z,9.99
2022-11-07T22:58:22.079Z,9.98
2022-11-07T23:00:48.643Z,10.02
2022-11-07T23:03:15.406Z,10.02
2022-11-07T23:05:43.359Z,10.02
2022-11-07T23:08:10.251Z,10.06
2022-11-07T23:10:36.793Z,10.08
2022-11-07T23:13:03.338Z,10.10
2022-11-07T23:15:30.910Z,10.13
2022-11-07T23:17:57.959Z,10.10
2022-11-07T23:20:24.578Z,10.15
2022-11-07T23:22:52.494Z,10.18
2022-11-07T23:25:19.019Z,10.13
2022-11-07T23:27:45.512Z,10.27
2022-11-07T23:30:12.718Z,10.24
2022-11-07T23:32:39.260Z,10.19
2022-11-07T23:35:06.962Z,10.18
2022-11-07T23:37:33.460Z,10.18
2022-11-07T23:40:01.326Z,10.15
2022-11-07T23:42:27.988Z,10.09
2022-11-07T23:44:54.511Z,10.02
2022-11-07T23:47:21.013Z,9.90
2022-11-07T23:49:47.507Z,9.80
2022-11-07T23:52:14.752Z,9.73
2022-11-07T23:54:41.416Z,9.67
2022-11-07T23:57:09.412Z,9.64
2022-11-07T23:59:36.474Z,9.65
